sensor_id;sensor_type;location;lat;lon;timestamp;temperature;humidity
37412;DHT22;23278;52.110;6.050;2023-07-22T00:02:23;14.20;92.50
37412;DHT22;23278;52.110;6.050;2023-07-22T00:04:49;14.10;92.70
37412;DHT22;23278;52.110;6.050;2023-07-22T00:07:15;14.10;92.80
37412;DHT22;23278;52.110;6.050;2023-07-22T00:09:43;14.10;92.90
37412;DHT22;23278;52.110;6.050;2023-07-22T00:12:10;14.10;93.10
37412;DHT22;23278;52.110;6.050;2023-07-22T00:14:40;14.10;93.20
37412;DHT22;23278;52.110;6.050;2023-07-22T00:17:06;14.10;93.50
37412;DHT22;23278;52.110;6.050;2023-07-22T00:19:33;14.00;93.50
37412;DHT22;23278;52.110;6.050;2023-07-22T00:21:59;14.00;93.70
37412;DHT22;23278;52.110;6.050;2023-07-22T00:24:25;14.00;93.90
37412;DHT22;23278;52.110;6.050;2023-07-22T00:26:51;14.00;93.90
37412;DHT22;23278;52.110;6.050;2023-07-22T00:29:17;13.90;94.10
37412;DHT22;23278;52.110;6.050;2023-07-22T00:31:43;13.90;94.20
37412;DHT22;23278;52.110;6.050;2023-07-22T00:34:09;13.80;94.30
37412;DHT22;23278;52.110;6.050;2023-07-22T00:36:36;13.80;94.50
37412;DHT22;23278;52.110;6.050;2023-07-22T00:39:03;13.80;94.60
37412;DHT22;23278;52.110;6.050;2023-07-22T00:41:31;13.70;94.60
37412;DHT22;23278;52.110;6.050;2023-07-22T00:43:57;13.70;94.70
37412;DHT22;23278;52.110;6.050;2023-07-22T00:46:23;13.70;94.80
37412;DHT22;23278;52.110;6.050;2023-07-22T00:48:50;13.70;95.10
37412;DHT22;23278;52.110;6.050;2023-07-22T00:51:17;13.60;95.10
37412;DHT22;23278;52.110;6.050;2023-07-22T00:53:43;13.60;95.30
37412;DHT22;23278;52.110;6.050;2023-07-22T00:56:09;13.60;95.60
37412;DHT22;23278;52.110;6.050;2023-07-22T00:58:35;13.60;95.60
37412;DHT22;23278;52.110;6.050;2023-07-22T01:01:01;13.50;95.60
37412;DHT22;23278;52.110;6.050;2023-07-22T01:03:27;13.50;95.70
37412;DHT22;23278;52.110;6.050;2023-07-22T01:05:53;13.50;95.90
37412;DHT22;23278;52.110;6.050;2023-07-22T01:08:21;13.50;95.90
37412;DHT22;23278;52.110;6.050;2023-07-22T01:10:46;13.50;95.90
37412;DHT22;23278;52.110;6.050;2023-07-22T01:13:14;13.60;95.90
37412;DHT22;23278;52.110;6.050;2023-07-22T01:15:40;13.60;95.90
37412;DHT22;23278;52.110;6.050;2023-07-22T01:18:07;13.70;95.80
37412;DHT22;23278;52.110;6.050;2023-07-22T01:20:33;13.70;95.90
37412;DHT22;23278;52.110;6.050;2023-07-22T01:23:00;13.80;96.00
37412;DHT22;23278;52.110;6.050;2023-07-22T01:25:26;13.80;95.90
37412;DHT22;23278;52.110;6.050;2023-07-22T01:27:53;13.80;95.90
37412;DHT22;23278;52.110;6.050;2023-07-22T01:30:19;13.90;95.90
37412;DHT22;23278;52.110;6.050;2023-07-22T01:32:46;13.90;96.00
37412;DHT22;23278;52.110;6.050;2023-07-22T01:35:12;13.90;96.10
37412;DHT22;23278;52.110;6.050;2023-07-22T01:37:39;14.00;96.10
37412;DHT22;23278;52.110;6.050;2023-07-22T01:40:05;14.00;96.20
37412;DHT22;23278;52.110;6.050;2023-07-22T01:42:42;14.00;96.20
37412;DHT22;23278;52.110;6.050;2023-07-22T01:45:09;14.00;96.20
37412;DHT22;23278;52.110;6.050;2023-07-22T01:47:36;14.10;96.30
37412;DHT22;23278;52.110;6.050;2023-07-22T01:50:04;14.00;96.30
37412;DHT22;23278;52.110;6.050;2023-07-22T01:52:32;14.00;96.30
37412;DHT22;23278;52.110;6.050;2023-07-22T01:54:58;14.00;96.30
37412;DHT22;23278;52.110;6.050;2023-07-22T01:57:23;14.00;96.50
37412;DHT22;23278;52.110;6.050;2023-07-22T01:59:50;14.00;96.70
37412;DHT22;23278;52.110;6.050;2023-07-22T02:02:16;14.00;96.90
37412;DHT22;23278;52.110;6.050;2023-07-22T02:04:42;14.00;96.80
37412;DHT22;23278;52.110;6.050;2023-07-22T02:07:08;14.00;96.90
37412;DHT22;23278;52.110;6.050;2023-07-22T02:09:34;14.00;96.90
37412;DHT22;23278;52.110;6.050;2023-07-22T02:12:01;14.00;97.10
37412;DHT22;23278;52.110;6.050;2023-07-22T02:14:27;14.00;97.30
37412;DHT22;23278;52.110;6.050;2023-07-22T02:16:53;14.00;97.30
37412;DHT22;23278;52.110;6.050;2023-07-22T02:19:19;13.90;97.30
37412;DHT22;23278;52.110;6.050;2023-07-22T02:21:45;13.90;97.30
37412;DHT22;23278;52.110;6.050;2023-07-22T02:24:11;13.90;97.40
37412;DHT22;23278;52.110;6.050;2023-07-22T02:26:37;13.80;97.40
37412;DHT22;23278;52.110;6.050;2023-07-22T02:29:02;13.90;97.60
37412;DHT22;23278;52.110;6.050;2023-07-22T02:31:28;13.80;97.80
37412;DHT22;23278;52.110;6.050;2023-07-22T02:33:54;13.80;97.90
37412;DHT22;23278;52.110;6.050;2023-07-22T02:36:21;13.80;98.00
37412;DHT22;23278;52.110;6.050;2023-07-22T02:38:46;13.80;98.10
37412;DHT22;23278;52.110;6.050;2023-07-22T02:41:12;13.70;98.30
37412;DHT22;23278;52.110;6.050;2023-07-22T02:43:38;13.70;98.20
37412;DHT22;23278;52.110;6.050;2023-07-22T02:46:06;13.70;98.40
37412;DHT22;23278;52.110;6.050;2023-07-22T02:48:34;13.60;98.50
37412;DHT22;23278;52.110;6.050;2023-07-22T02:53:31;13.60;98.60
37412;DHT22;23278;52.110;6.050;2023-07-22T02:55:57;13.50;98.60
37412;DHT22;23278;52.110;6.050;2023-07-22T02:58:23;13.50;98.80
37412;DHT22;23278;52.110;6.050;2023-07-22T03:00:49;13.50;98.80
37412;DHT22;23278;52.110;6.050;2023-07-22T03:03:15;13.50;98.90
37412;DHT22;23278;52.110;6.050;2023-07-22T03:05:41;13.50;98.90
37412;DHT22;23278;52.110;6.050;2023-07-22T03:08:07;13.40;98.90
37412;DHT22;23278;52.110;6.050;2023-07-22T03:10:33;13.40;98.90
37412;DHT22;23278;52.110;6.050;2023-07-22T03:12:58;13.40;99.10
37412;DHT22;23278;52.110;6.050;2023-07-22T03:15:25;13.40;99.10
37412;DHT22;23278;52.110;6.050;2023-07-22T03:17:52;13.40;99.10
37412;DHT22;23278;52.110;6.050;2023-07-22T03:20:18;13.40;99.10
37412;DHT22;23278;52.110;6.050;2023-07-22T03:22:45;13.30;99.10
37412;DHT22;23278;52.110;6.050;2023-07-22T03:25:12;13.30;99.20
37412;DHT22;23278;52.110;6.050;2023-07-22T03:27:39;13.30;99.20
37412;DHT22;23278;52.110;6.050;2023-07-22T03:30:07;13.30;99.20
37412;DHT22;23278;52.110;6.050;2023-07-22T03:32:36;13.40;99.20
37412;DHT22;23278;52.110;6.050;2023-07-22T03:35:02;13.40;99.20
37412;DHT22;23278;52.110;6.050;2023-07-22T03:37:29;13.40;99.30
37412;DHT22;23278;52.110;6.050;2023-07-22T03:39:55;13.40;99.30
37412;DHT22;23278;52.110;6.050;2023-07-22T03:42:21;13.40;99.50
37412;DHT22;23278;52.110;6.050;2023-07-22T03:44:47;13.40;99.50
37412;DHT22;23278;52.110;6.050;2023-07-22T03:47:13;13.40;99.50
37412;DHT22;23278;52.110;6.050;2023-07-22T03:49:39;13.40;99.70
37412;DHT22;23278;52.110;6.050;2023-07-22T03:52:06;13.40;99.70
37412;DHT22;23278;52.110;6.050;2023-07-22T03:54:32;13.40;99.70
37412;DHT22;23278;52.110;6.050;2023-07-22T03:56:58;13.40;99.90
37412;DHT22;23278;52.110;6.050;2023-07-22T03:59:24;13.40;99.90
37412;DHT22;23278;52.110;6.050;2023-07-22T04:01:50;13.40;99.90
37412;DHT22;23278;52.110;6.050;2023-07-22T04:04:16;13.50;99.90
37412;DHT22;23278;52.110;6.050;2023-07-22T04:06:42;13.50;99.90
37412;DHT22;23278;52.110;6.050;2023-07-22T04:09:08;13.50;99.90
37412;DHT22;23278;52.110;6.050;2023-07-22T04:11:34;13.50;99.90
37412;DHT22;23278;52.110;6.050;2023-07-22T04:14:00;13.50;99.90
37412;DHT22;23278;52.110;6.050;2023-07-22T04:16:26;13.50;99.90
37412;DHT22;23278;52.110;6.050;2023-07-22T04:18:51;13.50;99.90
37412;DHT22;23278;52.110;6.050;2023-07-22T04:21:17;13.40;99.90
37412;DHT22;23278;52.110;6.050;2023-07-22T04:23:43;13.40;99.90
37412;DHT22;23278;52.110;6.050;2023-07-22T04:26:09;13.40;99.90
37412;DHT22;23278;52.110;6.050;2023-07-22T04:28:35;13.40;99.90
37412;DHT22;23278;52.110;6.050;2023-07-22T04:31:01;13.40;99.90
37412;DHT22;23278;52.110;6.050;2023-07-22T04:33:27;13.40;99.90
37412;DHT22;23278;52.110;6.050;2023-07-22T04:35:55;13.40;99.90
37412;DHT22;23278;52.110;6.050;2023-07-22T04:38:21;13.40;99.90
37412;DHT22;23278;52.110;6.050;2023-07-22T04:40:47;13.50;99.90
37412;DHT22;23278;52.110;6.050;2023-07-22T04:43:13;13.50;99.90
37412;DHT22;23278;52.110;6.050;2023-07-22T04:45:39;13.60;99.90
37412;DHT22;23278;52.110;6.050;2023-07-22T04:48:08;13.60;99.90
37412;DHT22;23278;52.110;6.050;2023-07-22T04:50:34;13.70;99.90
37412;DHT22;23278;52.110;6.050;2023-07-22T04:53:00;13.90;99.90
37412;DHT22;23278;52.110;6.050;2023-07-22T04:55:25;13.90;99.90
37412;DHT22;23278;52.110;6.050;2023-07-22T04:57:55;14.00;99.90
37412;DHT22;23278;52.110;6.050;2023-07-22T05:00:21;14.00;99.90
37412;DHT22;23278;52.110;6.050;2023-07-22T05:02:48;14.10;99.90
37412;DHT22;23278;52.110;6.050;2023-07-22T05:05:14;14.20;99.90
37412;DHT22;23278;52.110;6.050;2023-07-22T05:07:40;14.20;99.90
37412;DHT22;23278;52.110;6.050;2023-07-22T05:10:07;14.30;99.90
37412;DHT22;23278;52.110;6.050;2023-07-22T05:12:41;14.30;99.90
37412;DHT22;23278;52.110;6.050;2023-07-22T05:15:09;14.30;99.90
37412;DHT22;23278;52.110;6.050;2023-07-22T05:17:36;14.40;99.90
37412;DHT22;23278;52.110;6.050;2023-07-22T05:20:02;14.50;99.90
37412;DHT22;23278;52.110;6.050;2023-07-22T05:22:29;14.60;99.90
37412;DHT22;23278;52.110;6.050;2023-07-22T05:24:55;14.60;99.90
37412;DHT22;23278;52.110;6.050;2023-07-22T05:27:22;14.70;99.90
37412;DHT22;23278;52.110;6.050;2023-07-22T05:29:48;14.80;99.90
37412;DHT22;23278;52.110;6.050;2023-07-22T05:32:14;14.90;99.90
37412;DHT22;23278;52.110;6.050;2023-07-22T05:34:39;14.90;99.90
37412;DHT22;23278;52.110;6.050;2023-07-22T05:37:06;15.00;99.90
37412;DHT22;23278;52.110;6.050;2023-07-22T05:39:31;15.00;99.90
37412;DHT22;23278;52.110;6.050;2023-07-22T05:41:57;15.10;99.90
37412;DHT22;23278;52.110;6.050;2023-07-22T05:44:23;15.20;99.90
37412;DHT22;23278;52.110;6.050;2023-07-22T05:46:49;15.20;99.90
37412;DHT22;23278;52.110;6.050;2023-07-22T05:49:15;15.40;99.90
37412;DHT22;23278;52.110;6.050;2023-07-22T05:51:41;15.40;99.90
37412;DHT22;23278;52.110;6.050;2023-07-22T05:54:07;15.60;99.90
37412;DHT22;23278;52.110;6.050;2023-07-22T05:56:33;15.80;99.90
37412;DHT22;23278;52.110;6.050;2023-07-22T05:58:59;15.90;99.90
37412;DHT22;23278;52.110;6.050;2023-07-22T06:01:25;16.00;99.90
37412;DHT22;23278;52.110;6.050;2023-07-22T06:03:51;16.00;99.90
37412;DHT22;23278;52.110;6.050;2023-07-22T06:06:17;16.00;99.90
37412;DHT22;23278;52.110;6.050;2023-07-22T06:08:43;16.00;99.90
37412;DHT22;23278;52.110;6.050;2023-07-22T06:11:10;16.00;99.90
37412;DHT22;23278;52.110;6.050;2023-07-22T06:13:36;16.10;99.90
37412;DHT22;23278;52.110;6.050;2023-07-22T06:16:03;16.30;99.90
37412;DHT22;23278;52.110;6.050;2023-07-22T06:18:29;16.50;99.90
37412;DHT22;23278;52.110;6.050;2023-07-22T06:20:55;16.60;99.90
37412;DHT22;23278;52.110;6.050;2023-07-22T06:23:21;16.80;99.80
37412;DHT22;23278;52.110;6.050;2023-07-22T06:25:47;16.90;99.70
37412;DHT22;23278;52.110;6.050;2023-07-22T06:28:13;17.00;99.40
37412;DHT22;23278;52.110;6.050;2023-07-22T06:30:39;17.20;99.10
37412;DHT22;23278;52.110;6.050;2023-07-22T06:33:05;17.30;98.90
37412;DHT22;23278;52.110;6.050;2023-07-22T06:35:31;17.40;98.80
37412;DHT22;23278;52.110;6.050;2023-07-22T06:37:57;17.50;98.60
37412;DHT22;23278;52.110;6.050;2023-07-22T06:40:25;17.60;98.40
37412;DHT22;23278;52.110;6.050;2023-07-22T06:42:51;17.60;98.20
37412;DHT22;23278;52.110;6.050;2023-07-22T06:45:17;17.80;98.00
37412;DHT22;23278;52.110;6.050;2023-07-22T06:47:43;17.90;97.80
37412;DHT22;23278;52.110;6.050;2023-07-22T06:50:09;18.10;97.60
37412;DHT22;23278;52.110;6.050;2023-07-22T06:52:35;18.20;97.20
37412;DHT22;23278;52.110;6.050;2023-07-22T06:55:01;18.30;96.70
37412;DHT22;23278;52.110;6.050;2023-07-22T06:57:28;18.20;96.50
37412;DHT22;23278;52.110;6.050;2023-07-22T06:59:55;18.20;96.40
37412;DHT22;23278;52.110;6.050;2023-07-22T07:02:21;18.10;96.50
37412;DHT22;23278;52.110;6.050;2023-07-22T07:04:47;18.10;96.50
37412;DHT22;23278;52.110;6.050;2023-07-22T07:07:14;18.00;96.30
37412;DHT22;23278;52.110;6.050;2023-07-22T07:09:40;18.00;96.30
37412;DHT22;23278;52.110;6.050;2023-07-22T07:12:06;17.90;96.30
37412;DHT22;23278;52.110;6.050;2023-07-22T07:14:33;17.90;96.30
37412;DHT22;23278;52.110;6.050;2023-07-22T07:17:00;17.90;96.30
37412;DHT22;23278;52.110;6.050;2023-07-22T07:19:26;18.00;96.30
37412;DHT22;23278;52.110;6.050;2023-07-22T07:21:52;18.10;96.10
37412;DHT22;23278;52.110;6.050;2023-07-22T07:24:18;18.20;96.00
37412;DHT22;23278;52.110;6.050;2023-07-22T07:26:45;18.30;95.90
37412;DHT22;23278;52.110;6.050;2023-07-22T07:29:11;18.40;95.80
37412;DHT22;23278;52.110;6.050;2023-07-22T07:31:38;18.50;95.30
37412;DHT22;23278;52.110;6.050;2023-07-22T07:34:04;18.70;94.70
37412;DHT22;23278;52.110;6.050;2023-07-22T07:36:31;18.90;94.10
37412;DHT22;23278;52.110;6.050;2023-07-22T07:38:57;19.10;93.70
37412;DHT22;23278;52.110;6.050;2023-07-22T07:41:23;19.30;93.20
37412;DHT22;23278;52.110;6.050;2023-07-22T07:43:49;19.60;92.40
37412;DHT22;23278;52.110;6.050;2023-07-22T07:46:22;19.70;92.00
37412;DHT22;23278;52.110;6.050;2023-07-22T07:48:53;19.90;91.50
37412;DHT22;23278;52.110;6.050;2023-07-22T07:51:21;20.10;90.90
37412;DHT22;23278;52.110;6.050;2023-07-22T07:53:47;20.20;90.00
37412;DHT22;23278;52.110;6.050;2023-07-22T07:56:14;20.30;87.40
37412;DHT22;23278;52.110;6.050;2023-07-22T07:58:40;20.40;86.90
37412;DHT22;23278;52.110;6.050;2023-07-22T08:01:06;20.60;85.90
37412;DHT22;23278;52.110;6.050;2023-07-22T08:03:34;20.60;84.40
37412;DHT22;23278;52.110;6.050;2023-07-22T08:06:01;20.70;83.70
37412;DHT22;23278;52.110;6.050;2023-07-22T08:08:27;20.90;82.20
37412;DHT22;23278;52.110;6.050;2023-07-22T08:11:05;21.00;79.80
37412;DHT22;23278;52.110;6.050;2023-07-22T08:13:31;21.10;79.10
37412;DHT22;23278;52.110;6.050;2023-07-22T08:16:06;21.20;78.00
37412;DHT22;23278;52.110;6.050;2023-07-22T08:18:33;21.20;77.90
37412;DHT22;23278;52.110;6.050;2023-07-22T08:21:00;21.30;77.70
37412;DHT22;23278;52.110;6.050;2023-07-22T08:23:26;21.30;76.20
37412;DHT22;23278;52.110;6.050;2023-07-22T08:25:52;21.30;75.50
37412;DHT22;23278;52.110;6.050;2023-07-22T08:28:18;21.30;74.50
37412;DHT22;23278;52.110;6.050;2023-07-22T08:30:44;21.40;74.20
37412;DHT22;23278;52.110;6.050;2023-07-22T08:33:10;21.60;74.30
37412;DHT22;23278;52.110;6.050;2023-07-22T08:35:40;21.90;73.80
37412;DHT22;23278;52.110;6.050;2023-07-22T08:38:07;22.10;72.40
37412;DHT22;23278;52.110;6.050;2023-07-22T08:40:35;22.00;71.80
37412;DHT22;23278;52.110;6.050;2023-07-22T08:43:02;22.10;71.90
37412;DHT22;23278;52.110;6.050;2023-07-22T08:45:31;22.10;71.30
37412;DHT22;23278;52.110;6.050;2023-07-22T08:48:03;22.10;70.40
37412;DHT22;23278;52.110;6.050;2023-07-22T08:50:53;22.10;70.30
37412;DHT22;23278;52.110;6.050;2023-07-22T08:53:19;22.10;70.10
37412;DHT22;23278;52.110;6.050;2023-07-22T08:55:46;21.90;70.40
37412;DHT22;23278;52.110;6.050;2023-07-22T08:58:13;21.80;71.10
37412;DHT22;23278;52.110;6.050;2023-07-22T09:00:40;21.90;71.30
37412;DHT22;23278;52.110;6.050;2023-07-22T09:03:06;22.00;71.10
37412;DHT22;23278;52.110;6.050;2023-07-22T09:05:33;22.10;71.00
37412;DHT22;23278;52.110;6.050;2023-07-22T09:08:01;22.10;70.70
37412;DHT22;23278;52.110;6.050;2023-07-22T09:10:28;22.30;70.40
37412;DHT22;23278;52.110;6.050;2023-07-22T09:12:54;22.60;68.70
37412;DHT22;23278;52.110;6.050;2023-07-22T09:15:20;22.90;67.70
37412;DHT22;23278;52.110;6.050;2023-07-22T09:17:47;23.10;66.50
37412;DHT22;23278;52.110;6.050;2023-07-22T09:20:14;23.30;65.80
37412;DHT22;23278;52.110;6.050;2023-07-22T09:22:47;23.30;64.40
37412;DHT22;23278;52.110;6.050;2023-07-22T09:25:18;23.30;64.40
37412;DHT22;23278;52.110;6.050;2023-07-22T09:27:46;23.20;64.10
37412;DHT22;23278;52.110;6.050;2023-07-22T09:30:23;23.30;63.20
37412;DHT22;23278;52.110;6.050;2023-07-22T09:32:50;23.30;63.00
37412;DHT22;23278;52.110;6.050;2023-07-22T09:35:17;23.30;62.50
37412;DHT22;23278;52.110;6.050;2023-07-22T09:37:44;23.10;62.60
37412;DHT22;23278;52.110;6.050;2023-07-22T09:40:20;23.20;62.70
37412;DHT22;23278;52.110;6.050;2023-07-22T09:42:56;23.20;62.10
37412;DHT22;23278;52.110;6.050;2023-07-22T09:45:25;23.20;62.40
37412;DHT22;23278;52.110;6.050;2023-07-22T09:47:53;23.40;62.50
37412;DHT22;23278;52.110;6.050;2023-07-22T09:50:22;23.60;62.40
37412;DHT22;23278;52.110;6.050;2023-07-22T09:52:56;23.80;62.20
37412;DHT22;23278;52.110;6.050;2023-07-22T09:55:25;24.20;61.70
37412;DHT22;23278;52.110;6.050;2023-07-22T09:58:04;24.60;60.80
37412;DHT22;23278;52.110;6.050;2023-07-22T10:00:37;25.00;58.70
37412;DHT22;23278;52.110;6.050;2023-07-22T10:03:10;25.30;57.40
37412;DHT22;23278;52.110;6.050;2023-07-22T10:05:38;25.30;56.40
37412;DHT22;23278;52.110;6.050;2023-07-22T10:08:06;25.30;55.80
37412;DHT22;23278;52.110;6.050;2023-07-22T10:13:00;24.90;55.40
37412;DHT22;23278;52.110;6.050;2023-07-22T10:15:29;24.70;56.30
37412;DHT22;23278;52.110;6.050;2023-07-22T10:17:56;24.40;56.20
37412;DHT22;23278;52.110;6.050;2023-07-22T10:20:23;24.30;57.10
37412;DHT22;23278;52.110;6.050;2023-07-22T10:22:49;24.30;57.10
37412;DHT22;23278;52.110;6.050;2023-07-22T10:25:18;24.30;57.40
37412;DHT22;23278;52.110;6.050;2023-07-22T10:27:44;24.30;57.30
37412;DHT22;23278;52.110;6.050;2023-07-22T10:30:12;24.20;57.80
37412;DHT22;23278;52.110;6.050;2023-07-22T10:32:40;24.10;57.90
37412;DHT22;23278;52.110;6.050;2023-07-22T10:35:21;24.00;58.00
37412;DHT22;23278;52.110;6.050;2023-07-22T10:37:47;23.90;58.10
37412;DHT22;23278;52.110;6.050;2023-07-22T10:41:11;23.90;58.60
37412;DHT22;23278;52.110;6.050;2023-07-22T10:43:10;24.00;58.90
37412;DHT22;23278;52.110;6.050;2023-07-22T10:45:45;24.30;58.00
37412;DHT22;23278;52.110;6.050;2023-07-22T10:48:14;24.50;56.80
37412;DHT22;23278;52.110;6.050;2023-07-22T10:50:48;24.50;56.70
37412;DHT22;23278;52.110;6.050;2023-07-22T11:06:31;24.10;56.50
37412;DHT22;23278;52.110;6.050;2023-07-22T11:08:57;24.00;56.20
37412;DHT22;23278;52.110;6.050;2023-07-22T11:11:40;24.20;56.50
37412;DHT22;23278;52.110;6.050;2023-07-22T11:14:17;24.50;56.30
37412;DHT22;23278;52.110;6.050;2023-07-22T11:16:45;24.50;56.10
37412;DHT22;23278;52.110;6.050;2023-07-22T11:19:16;24.40;56.40
37412;DHT22;23278;52.110;6.050;2023-07-22T11:21:47;24.30;56.70
37412;DHT22;23278;52.110;6.050;2023-07-22T11:24:14;24.20;56.50
37412;DHT22;23278;52.110;6.050;2023-07-22T11:26:41;24.00;56.80
37412;DHT22;23278;52.110;6.050;2023-07-22T11:29:08;23.70;57.60
37412;DHT22;23278;52.110;6.050;2023-07-22T11:31:36;23.30;58.30
37412;DHT22;23278;52.110;6.050;2023-07-22T11:34:03;23.10;59.10
37412;DHT22;23278;52.110;6.050;2023-07-22T11:36:29;22.80;59.80
37412;DHT22;23278;52.110;6.050;2023-07-22T11:39:09;22.50;60.10
37412;DHT22;23278;52.110;6.050;2023-07-22T11:41:37;22.40;60.40
37412;DHT22;23278;52.110;6.050;2023-07-22T11:44:04;22.20;60.70
37412;DHT22;23278;52.110;6.050;2023-07-22T11:46:58;22.30;60.80
37412;DHT22;23278;52.110;6.050;2023-07-22T11:49:35;22.40;60.50
37412;DHT22;23278;52.110;6.050;2023-07-22T11:52:10;22.30;60.30
37412;DHT22;23278;52.110;6.050;2023-07-22T11:54:38;22.30;60.60
37412;DHT22;23278;52.110;6.050;2023-07-22T11:57:22;22.20;60.80
37412;DHT22;23278;52.110;6.050;2023-07-22T11:59:50;22.20;60.70
37412;DHT22;23278;52.110;6.050;2023-07-22T12:04:57;22.40;60.70
37412;DHT22;23278;52.110;6.050;2023-07-22T12:07:30;22.40;60.70
37412;DHT22;23278;52.110;6.050;2023-07-22T12:09:58;22.40;60.80
37412;DHT22;23278;52.110;6.050;2023-07-22T12:12:51;22.40;62.10
37412;DHT22;23278;52.110;6.050;2023-07-22T12:15:20;22.30;62.00
37412;DHT22;23278;52.110;6.050;2023-07-22T12:17:59;22.50;61.80
37412;DHT22;23278;52.110;6.050;2023-07-22T12:20:29;22.70;61.50
37412;DHT22;23278;52.110;6.050;2023-07-22T12:22:56;22.80;61.30
37412;DHT22;23278;52.110;6.050;2023-07-22T12:25:22;22.90;61.20
37412;DHT22;23278;52.110;6.050;2023-07-22T12:27:48;23.20;61.00
37412;DHT22;23278;52.110;6.050;2023-07-22T12:30:16;23.50;60.10
37412;DHT22;23278;52.110;6.050;2023-07-22T12:32:42;24.10;59.00
37412;DHT22;23278;52.110;6.050;2023-07-22T12:35:08;24.60;57.60
37412;DHT22;23278;52.110;6.050;2023-07-22T12:37:35;24.90;57.10
37412;DHT22;23278;52.110;6.050;2023-07-22T12:40:01;25.00;56.90
37412;DHT22;23278;52.110;6.050;2023-07-22T12:42:30;24.90;57.20
37412;DHT22;23278;52.110;6.050;2023-07-22T12:44:56;24.70;57.50
37412;DHT22;23278;52.110;6.050;2023-07-22T12:47:22;24.40;57.60
37412;DHT22;23278;52.110;6.050;2023-07-22T12:49:48;24.00;57.40
37412;DHT22;23278;52.110;6.050;2023-07-22T12:52:14;23.40;58.10
37412;DHT22;23278;52.110;6.050;2023-07-22T12:54:40;23.00;59.00
37412;DHT22;23278;52.110;6.050;2023-07-22T12:57:06;22.60;59.90
37412;DHT22;23278;52.110;6.050;2023-07-22T12:59:32;22.40;60.90
37412;DHT22;23278;52.110;6.050;2023-07-22T13:01:58;22.10;64.40
37412;DHT22;23278;52.110;6.050;2023-07-22T13:04:24;21.20;69.70
37412;DHT22;23278;52.110;6.050;2023-07-22T13:06:51;20.30;78.60
37412;DHT22;23278;52.110;6.050;2023-07-22T13:09:20;19.60;83.70
37412;DHT22;23278;52.110;6.050;2023-07-22T13:11:46;19.10;86.90
37412;DHT22;23278;52.110;6.050;2023-07-22T13:14:12;18.70;90.50
37412;DHT22;23278;52.110;6.050;2023-07-22T13:16:38;18.50;92.10
37412;DHT22;23278;52.110;6.050;2023-07-22T13:19:04;18.40;93.10
37412;DHT22;23278;52.110;6.050;2023-07-22T13:21:30;18.40;93.90
37412;DHT22;23278;52.110;6.050;2023-07-22T13:23:56;18.30;94.30
37412;DHT22;23278;52.110;6.050;2023-07-22T13:26:22;18.30;94.50
37412;DHT22;23278;52.110;6.050;2023-07-22T13:28:48;18.40;94.60
37412;DHT22;23278;52.110;6.050;2023-07-22T13:31:14;18.40;94.60
37412;DHT22;23278;52.110;6.050;2023-07-22T13:33:40;18.60;94.40
37412;DHT22;23278;52.110;6.050;2023-07-22T13:36:06;18.90;94.00
37412;DHT22;23278;52.110;6.050;2023-07-22T13:38:32;19.20;93.50
37412;DHT22;23278;52.110;6.050;2023-07-22T13:40:58;19.90;92.30
37412;DHT22;23278;52.110;6.050;2023-07-22T13:43:24;20.50;91.20
37412;DHT22;23278;52.110;6.050;2023-07-22T13:45:51;21.10;90.20
37412;DHT22;23278;52.110;6.050;2023-07-22T13:48:16;22.10;85.40
37412;DHT22;23278;52.110;6.050;2023-07-22T13:50:42;23.60;77.50
37412;DHT22;23278;52.110;6.050;2023-07-22T13:53:08;24.70;69.40
37412;DHT22;23278;52.110;6.050;2023-07-22T13:55:34;24.90;66.80
37412;DHT22;23278;52.110;6.050;2023-07-22T13:58:00;25.00;65.30
37412;DHT22;23278;52.110;6.050;2023-07-22T14:00:26;25.00;64.00
37412;DHT22;23278;52.110;6.050;2023-07-22T14:02:52;25.10;62.60
37412;DHT22;23278;52.110;6.050;2023-07-22T14:05:18;25.80;60.50
37412;DHT22;23278;52.110;6.050;2023-07-22T14:07:44;27.10;57.40
37412;DHT22;23278;52.110;6.050;2023-07-22T14:10:10;27.90;55.70
37412;DHT22;23278;52.110;6.050;2023-07-22T14:12:35;27.80;54.40
37412;DHT22;23278;52.110;6.050;2023-07-22T14:15:02;26.90;54.80
37412;DHT22;23278;52.110;6.050;2023-07-22T14:17:30;25.90;56.50
37412;DHT22;23278;52.110;6.050;2023-07-22T14:19:58;24.80;58.30
37412;DHT22;23278;52.110;6.050;2023-07-22T14:22:24;23.90;60.50
37412;DHT22;23278;52.110;6.050;2023-07-22T14:24:50;23.30;62.30
37412;DHT22;23278;52.110;6.050;2023-07-22T14:27:16;22.80;63.80
37412;DHT22;23278;52.110;6.050;2023-07-22T14:29:42;22.50;65.20
37412;DHT22;23278;52.110;6.050;2023-07-22T14:32:08;22.40;66.00
37412;DHT22;23278;52.110;6.050;2023-07-22T14:34:34;22.40;66.60
37412;DHT22;23278;52.110;6.050;2023-07-22T14:37:00;22.40;66.80
37412;DHT22;23278;52.110;6.050;2023-07-22T14:39:26;22.60;66.80
37412;DHT22;23278;52.110;6.050;2023-07-22T14:41:52;22.70;66.80
37412;DHT22;23278;52.110;6.050;2023-07-22T14:44:18;22.60;67.10
37412;DHT22;23278;52.110;6.050;2023-07-22T14:46:45;22.40;67.20
37412;DHT22;23278;52.110;6.050;2023-07-22T14:49:10;22.20;67.30
37412;DHT22;23278;52.110;6.050;2023-07-22T14:51:36;21.90;67.80
37412;DHT22;23278;52.110;6.050;2023-07-22T14:54:03;21.70;68.20
37412;DHT22;23278;52.110;6.050;2023-07-22T14:56:29;21.60;68.70
37412;DHT22;23278;52.110;6.050;2023-07-22T14:58:55;21.40;68.90
37412;DHT22;23278;52.110;6.050;2023-07-22T15:01:21;21.40;69.20
37412;DHT22;23278;52.110;6.050;2023-07-22T15:03:47;21.40;69.20
37412;DHT22;23278;52.110;6.050;2023-07-22T15:06:13;21.40;69.30
37412;DHT22;23278;52.110;6.050;2023-07-22T15:08:39;21.40;69.40
37412;DHT22;23278;52.110;6.050;2023-07-22T15:11:05;21.60;69.30
37412;DHT22;23278;52.110;6.050;2023-07-22T15:13:31;21.80;69.00
37412;DHT22;23278;52.110;6.050;2023-07-22T15:15:57;22.10;68.30
37412;DHT22;23278;52.110;6.050;2023-07-22T15:18:23;22.30;67.60
37412;DHT22;23278;52.110;6.050;2023-07-22T15:20:51;22.40;67.30
37412;DHT22;23278;52.110;6.050;2023-07-22T15:23:17;22.70;66.90
37412;DHT22;23278;52.110;6.050;2023-07-22T15:25:43;22.90;66.00
37412;DHT22;23278;52.110;6.050;2023-07-22T15:28:09;23.10;65.20
37412;DHT22;23278;52.110;6.050;2023-07-22T15:30:35;23.20;64.30
37412;DHT22;23278;52.110;6.050;2023-07-22T15:33:01;23.30;63.90
37412;DHT22;23278;52.110;6.050;2023-07-22T15:35:26;23.40;63.80
37412;DHT22;23278;52.110;6.050;2023-07-22T15:37:52;23.50;63.60
37412;DHT22;23278;52.110;6.050;2023-07-22T15:40:21;23.60;62.80
37412;DHT22;23278;52.110;6.050;2023-07-22T15:42:47;23.70;62.40
37412;DHT22;23278;52.110;6.050;2023-07-22T15:45:13;23.90;61.70
37412;DHT22;23278;52.110;6.050;2023-07-22T15:47:39;24.00;61.70
37412;DHT22;23278;52.110;6.050;2023-07-22T15:50:06;23.90;61.80
37412;DHT22;23278;52.110;6.050;2023-07-22T15:52:33;23.90;61.60